< < Back
Terminal Aerodrome Forecast


Current Version              Previous Versions:   1  2  3  4  5  6  7  8  9  

Terminal Aerodrome Forecast

675
FTUS44 KHUN 302340
TAFHSV
TAF
KHSV 302340Z 3100/3124 10004KT P6SM FEW060 SCT120 BKN250
     FM310600 08004KT 5SM BR BKN025
      TEMPO 3110/3113 1SM BR OVC008
     FM311400 VRB02KT P6SM SCT035 BKN050=



Latest METAR

651
SAUS80 KWBC 310000 RRB
MTRHSV
METAR KHSV 302353Z 09003KT 10SM SCT038 BKN046 BKN220 24/18 A3007 RMK AO2
SLP177 T02440183 10267 20239 55002


USA.gov is the U.S. government's official web portal to all federal, state and local government web resources and services.